createdAt,value
2022-08-03T00:00:29.042Z,2.99
2022-08-03T00:05:48.370Z,3.0
2022-08-03T00:10:55.866Z,3.0
2022-08-03T00:16:03.412Z,3.0
2022-08-03T00:21:10.888Z,3.0
2022-08-03T00:26:18.460Z,3.0
2022-08-03T00:31:25.901Z,2.99
2022-08-03T00:36:32.219Z,3.0
2022-08-03T00:41:41.207Z,3.0
2022-08-03T00:46:48.321Z,2.99
2022-08-03T00:51:55.763Z,3.0
2022-08-03T00:57:02.371Z,3.0
2022-08-03T01:02:10.291Z,3.0
2022-08-03T01:07:17.362Z,2.99
2022-08-03T01:12:25.429Z,2.99
2022-08-03T01:17:32.447Z,2.98
2022-08-03T01:22:40.219Z,2.98
2022-08-03T01:27:47.982Z,2.99
2022-08-03T01:32:54.897Z,2.99
2022-08-03T01:38:02.460Z,2.99
2022-08-03T01:43:11.352Z,2.99
2022-08-03T01:48:19.659Z,2.99
2022-08-03T01:53:28.274Z,3.0
2022-08-03T01:58:35.133Z,3.0
2022-08-03T02:03:42.903Z,2.99
2022-08-03T02:08:50.132Z,2.99
2022-08-03T02:13:56.726Z,2.99
2022-08-03T02:19:04.532Z,2.99
2022-08-03T02:24:11.729Z,3.01
2022-08-03T02:29:19.595Z,2.98
2022-08-03T02:34:27.061Z,2.99
2022-08-03T02:39:34.822Z,2.99
2022-08-03T02:44:41.843Z,2.99
2022-08-03T02:49:48.356Z,2.98
2022-08-03T02:54:56.214Z,3.0
2022-08-03T03:00:04.052Z,2.98
2022-08-03T03:05:11.275Z,3.0
2022-08-03T03:10:18.404Z,2.98
2022-08-03T03:15:31.408Z,3.0
2022-08-03T03:20:38.360Z,2.99
2022-08-03T03:25:45.909Z,2.98
2022-08-03T03:30:53.713Z,2.98
2022-08-03T03:36:01.408Z,2.99
2022-08-03T03:41:08.060Z,2.99
2022-08-03T03:46:16.009Z,2.99
2022-08-03T03:51:23.943Z,2.98
2022-08-03T03:56:30.969Z,2.98
2022-08-03T04:01:38.799Z,3.0
2022-08-03T04:06:51.094Z,3.0
2022-08-03T04:11:59.192Z,2.99
2022-08-03T04:17:07.278Z,3.01
2022-08-03T04:22:15.210Z,3.01
2022-08-03T04:27:23.908Z,3.01
2022-08-03T04:32:31.925Z,3.01
2022-08-03T04:37:40.143Z,3.01
2022-08-03T04:42:47.250Z,3.01
2022-08-03T04:47:54.872Z,3.02
2022-08-03T04:53:01.646Z,3.02
2022-08-03T04:58:11.275Z,3.02
2022-08-03T05:03:18.608Z,3.03
2022-08-03T05:08:25.382Z,3.02
2022-08-03T05:13:33.012Z,3.02
2022-08-03T05:18:39.601Z,3.03
2022-08-03T05:23:46.772Z,3.03
2022-08-03T05:28:55.255Z,3.02
2022-08-03T05:35:34.284Z,3.02
2022-08-03T05:40:40.661Z,3.02
2022-08-03T05:45:49.086Z,3.02
2022-08-03T05:50:56.249Z,3.02
2022-08-03T05:56:03.462Z,3.03
2022-08-03T06:01:11.573Z,3.02
2022-08-03T06:06:19.097Z,3.02
2022-08-03T06:11:26.304Z,3.02
2022-08-03T06:16:34.138Z,3.02
2022-08-03T06:21:41.367Z,3.02
2022-08-03T06:26:49.647Z,3.03
2022-08-03T06:31:57.303Z,3.03
2022-08-03T06:37:05.337Z,3.03
2022-08-03T06:42:13.412Z,3.03
2022-08-03T06:47:21.731Z,3.03
2022-08-03T06:52:28.999Z,3.03
2022-08-03T06:57:36.790Z,3.04
2022-08-03T07:02:44.956Z,3.03
2022-08-03T07:07:52.735Z,3.03
2022-08-03T07:13:00.875Z,3.03
2022-08-03T07:18:08.848Z,3.03
2022-08-03T07:23:16.719Z,3.03
2022-08-03T07:28:25.688Z,3.03
2022-08-03T07:34:13.390Z,3.03
2022-08-03T07:39:19.914Z,3.03
2022-08-03T07:44:28.351Z,3.02
2022-08-03T07:49:35.586Z,3.03
2022-08-03T07:54:44.563Z,3.03
2022-08-03T07:59:54.254Z,3.02
2022-08-03T08:05:02.881Z,3.03
2022-08-03T08:10:11.281Z,3.03
2022-08-03T08:15:18.615Z,3.03
2022-08-03T08:20:25.873Z,3.04
2022-08-03T08:25:34.075Z,3.03
2022-08-03T08:30:41.954Z,3.03
2022-08-03T08:35:51.118Z,3.03
2022-08-03T08:40:58.436Z,3.03
2022-08-03T08:46:05.932Z,3.03
2022-08-03T08:51:13.846Z,3.03
2022-08-03T08:56:22.160Z,3.03
2022-08-03T09:01:29.835Z,3.03
2022-08-03T09:06:38.309Z,3.03
2022-08-03T09:11:45.708Z,3.03
2022-08-03T09:16:52.048Z,3.03
2022-08-03T09:21:59.431Z,3.03
2022-08-03T09:27:06.969Z,3.04
2022-08-03T09:32:23.126Z,3.03
2022-08-03T09:37:31.072Z,3.04
2022-08-03T09:42:37.730Z,3.02
2022-08-03T09:47:44.842Z,3.03
2022-08-03T09:52:56.332Z,3.04
2022-08-03T09:58:03.768Z,3.03
2022-08-03T10:03:11.609Z,3.03
2022-08-03T10:08:19.838Z,3.03
2022-08-03T10:13:27.502Z,3.04
2022-08-03T10:18:34.663Z,3.03
2022-08-03T10:23:43.053Z,3.03
2022-08-03T10:28:51.008Z,3.03
2022-08-03T10:33:58.641Z,3.03
2022-08-03T10:39:05.919Z,3.03
2022-08-03T10:44:13.019Z,3.04
2022-08-03T10:49:20.245Z,3.03
2022-08-03T10:54:28.012Z,3.04
2022-08-03T10:59:35.275Z,3.03
2022-08-03T11:04:43.609Z,3.03
2022-08-03T11:09:51.578Z,3.04
2022-08-03T11:14:58.971Z,3.03
2022-08-03T11:20:07.111Z,3.03
2022-08-03T11:25:13.819Z,3.04
2022-08-03T11:30:21.656Z,3.03
2022-08-03T11:35:28.866Z,3.03
2022-08-03T11:40:36.031Z,3.04
2022-08-03T11:45:42.614Z,3.03
2022-08-03T11:50:51.413Z,3.03
2022-08-03T11:55:59.102Z,3.04
2022-08-03T12:01:06.552Z,3.04
2022-08-03T12:06:13.924Z,3.03
2022-08-03T12:11:20.537Z,3.04
2022-08-03T12:16:27.960Z,3.04
2022-08-03T12:21:36.714Z,3.03
2022-08-03T12:27:34.675Z,3.03
2022-08-03T12:32:41.205Z,3.03
2022-08-03T12:37:49.656Z,3.03
2022-08-03T12:42:56.859Z,3.03
2022-08-03T12:48:05.048Z,3.04
2022-08-03T12:53:12.540Z,3.04
2022-08-03T12:58:21.075Z,3.03
2022-08-03T13:03:29.698Z,3.03
2022-08-03T13:08:38.144Z,3.03
2022-08-03T13:13:45.818Z,3.03
2022-08-03T13:18:54.499Z,3.03
2022-08-03T13:24:02.378Z,3.03
2022-08-03T13:29:08.691Z,3.03
2022-08-03T13:34:15.889Z,3.04
2022-08-03T13:39:24.335Z,3.04
2022-08-03T13:44:31.941Z,3.04
2022-08-03T13:49:39.447Z,3.04
2022-08-03T13:54:46.560Z,3.04
2022-08-03T13:59:53.853Z,3.03
2022-08-03T14:05:02.101Z,3.04
2022-08-03T14:10:10.344Z,3.04
2022-08-03T14:15:18.306Z,3.03
2022-08-03T14:20:26.962Z,3.04
2022-08-03T14:25:34.694Z,3.04
2022-08-03T14:30:41.496Z,3.03
2022-08-03T14:35:48.965Z,3.03
2022-08-03T14:40:56.964Z,3.04
2022-08-03T14:46:04.884Z,3.03
2022-08-03T14:51:13.090Z,3.04
2022-08-03T14:56:21.211Z,3.04
2022-08-03T15:01:44.422Z,3.03
2022-08-03T15:06:52.360Z,3.04
2022-08-03T15:12:00.207Z,3.04
2022-08-03T15:17:14.705Z,3.03
2022-08-03T15:22:23.447Z,3.04
2022-08-03T15:27:30.779Z,3.04
2022-08-03T15:32:37.416Z,3.04
2022-08-03T15:38:01.141Z,3.04
2022-08-03T15:43:08.844Z,3.03
2022-08-03T15:48:16.889Z,3.04
2022-08-03T15:53:24.380Z,3.03
2022-08-03T15:58:30.654Z,3.03
2022-08-03T16:03:38.006Z,3.05
2022-08-03T16:08:45.058Z,3.04
2022-08-03T16:13:53.213Z,3.04
2022-08-03T16:19:00.091Z,3.04
2022-08-03T16:24:08.178Z,3.04
2022-08-03T16:29:16.245Z,3.04
2022-08-03T16:34:22.933Z,3.03
2022-08-03T16:39:31.172Z,3.04
2022-08-03T16:44:39.855Z,3.04
2022-08-03T16:49:47.471Z,3.03
2022-08-03T16:54:53.660Z,3.03
2022-08-03T17:00:00.216Z,3.03
2022-08-03T17:05:07.415Z,3.03
2022-08-03T17:10:14.871Z,3.04
2022-08-03T17:15:23.434Z,3.03
2022-08-03T17:20:30.960Z,3.04
2022-08-03T17:25:37.495Z,3.03
2022-08-03T17:30:46.011Z,3.04
2022-08-03T17:35:53.825Z,3.03
2022-08-03T17:41:01.715Z,3.03
2022-08-03T17:46:09.089Z,3.03
2022-08-03T17:51:16.796Z,3.03
2022-08-03T17:56:23.896Z,3.02
2022-08-03T18:01:31.876Z,3.03
2022-08-03T18:06:39.447Z,3.03
2022-08-03T18:11:46.857Z,3.03
2022-08-03T18:16:54.220Z,3.03
2022-08-03T18:22:01.478Z,3.02
2022-08-03T18:27:10.042Z,3.02
2022-08-03T18:32:17.489Z,3.03
2022-08-03T18:37:24.124Z,3.02
2022-08-03T18:42:31.692Z,3.02
2022-08-03T18:47:37.827Z,3.02
2022-08-03T18:52:46.003Z,3.03
2022-08-03T18:57:53.538Z,3.03
2022-08-03T19:03:01.273Z,3.03
2022-08-03T19:08:07.934Z,3.01
2022-08-03T19:13:15.123Z,3.03
2022-08-03T19:18:22.997Z,3.01
2022-08-03T19:23:29.990Z,3.02
2022-08-03T19:28:37.688Z,3.02
2022-08-03T19:33:45.180Z,3.02
2022-08-03T19:38:52.321Z,3.02
2022-08-03T19:43:59.547Z,3.01
2022-08-03T19:49:06.779Z,3.02
2022-08-03T19:54:14.267Z,3.01
2022-08-03T19:59:22.971Z,3.02
2022-08-03T20:04:30.162Z,3.02
2022-08-03T20:09:37.512Z,3.01
2022-08-03T20:14:46.746Z,3.01
2022-08-03T20:19:54.980Z,3.02
2022-08-03T20:25:03.280Z,3.01
2022-08-03T20:30:11.857Z,3.01
2022-08-03T20:35:20.975Z,3.02
2022-08-03T20:40:29.019Z,3.01
2022-08-03T20:45:36.479Z,3.01
2022-08-03T20:50:44.484Z,3.01
2022-08-03T20:55:52.285Z,3.01
2022-08-03T21:01:00.080Z,3.02
2022-08-03T21:06:07.114Z,3.01
2022-08-03T21:11:15.675Z,3.0
2022-08-03T21:16:22.634Z,3.0
2022-08-03T21:21:30.041Z,3.0
2022-08-03T21:26:37.597Z,3.02
2022-08-03T21:31:44.648Z,3.01
2022-08-03T21:36:52.087Z,3.01
2022-08-03T21:42:00.410Z,3.01
2022-08-03T21:47:10.505Z,3.01
2022-08-03T21:52:18.730Z,3.01
2022-08-03T21:57:27.145Z,3.01
2022-08-03T22:02:35.462Z,3.01
2022-08-03T22:07:41.658Z,3.0
2022-08-03T22:12:49.462Z,3.0
2022-08-03T22:17:56.700Z,3.0
2022-08-03T22:23:04.411Z,3.01
2022-08-03T22:28:12.487Z,3.01
2022-08-03T22:33:20.425Z,3.0
2022-08-03T22:39:05.814Z,3.01
2022-08-03T22:44:13.493Z,3.01
2022-08-03T22:49:22.386Z,3.0
2022-08-03T22:54:31.283Z,3.01
2022-08-03T22:59:39.100Z,3.01
2022-08-03T23:04:46.433Z,3.01
2022-08-03T23:09:53.956Z,3.01
2022-08-03T23:15:00.977Z,3.0
2022-08-03T23:20:08.744Z,2.99
2022-08-03T23:25:15.102Z,3.0
2022-08-03T23:30:22.937Z,3.0
2022-08-03T23:35:31.843Z,3.0
2022-08-03T23:40:38.616Z,3.0
2022-08-03T23:45:46.258Z,3.0
2022-08-03T23:50:54.239Z,3.01
2022-08-03T23:56:02.005Z,3.0
